createdAt,value
2023-05-19T00:00:02.068Z,54.30957
2023-05-19T00:00:32.281Z,54.42578
2023-05-19T00:01:02.013Z,54.5332
2023-05-19T00:01:32.025Z,54.40234
2023-05-19T00:02:02.031Z,54.52051
2023-05-19T00:02:32.087Z,54.02539
2023-05-19T00:03:02.124Z,54.24316
2023-05-19T00:03:32.053Z,54.24316
2023-05-19T00:04:02.004Z,54.50195
2023-05-19T00:04:31.996Z,54.37207
2023-05-19T00:05:02.008Z,54.73828
2023-05-19T00:05:32.018Z,54.56543
2023-05-19T00:06:02.029Z,54.58594
2023-05-19T00:06:32.056Z,54.39941
2023-05-19T00:07:01.996Z,55.12402
2023-05-19T00:07:31.998Z,54.66113
2023-05-19T00:08:01.993Z,54.51953
2023-05-19T00:08:32.002Z,54.83203
2023-05-19T00:09:02.001Z,54.43945
2023-05-19T00:09:32.000Z,54.66406
2023-05-19T00:10:02.002Z,54.85742
2023-05-19T00:10:32.234Z,55.35352
2023-05-19T00:11:01.998Z,54.55469
2023-05-19T00:11:31.997Z,54.67383
2023-05-19T00:12:02.007Z,54.47754
2023-05-19T00:12:32.002Z,54.97656
2023-05-19T00:13:01.998Z,54.68457
2023-05-19T00:13:32.007Z,54.90039
2023-05-19T00:14:02.006Z,54.57617
2023-05-19T00:14:31.994Z,54.52246
2023-05-19T00:15:02.003Z,54.77246
2023-05-19T00:15:32.007Z,54.78223
2023-05-19T00:16:02.047Z,54.4707
2023-05-19T00:16:32.044Z,54.55957
2023-05-19T00:17:01.995Z,54.875
2023-05-19T00:17:32.056Z,54.5332
2023-05-19T00:18:02.067Z,54.54688
2023-05-19T00:18:32.006Z,54.30176
2023-05-19T00:19:02.065Z,54.36816
2023-05-19T00:19:32.001Z,54.41016
2023-05-19T00:20:02.009Z,54.70215
2023-05-19T00:20:32.211Z,54.74316
2023-05-19T00:21:02.002Z,55.03516
2023-05-19T00:21:32.006Z,54.67969
2023-05-19T00:22:02.005Z,54.88574
2023-05-19T00:22:32.001Z,54.94043
2023-05-19T00:23:02.021Z,54.88574
2023-05-19T00:23:32.002Z,54.56152
2023-05-19T00:24:01.995Z,54.58301
2023-05-19T00:24:32.005Z,54.44043
2023-05-19T00:25:02.003Z,54.83887
2023-05-19T00:25:31.996Z,54.99902
2023-05-19T00:26:02.008Z,54.8125
2023-05-19T00:26:32.003Z,54.9502
2023-05-19T00:27:02.001Z,54.9043
2023-05-19T00:27:32.004Z,54.97559
2023-05-19T00:28:01.998Z,55.03906
2023-05-19T00:28:32.006Z,54.84473
2023-05-19T00:29:02.006Z,54.8877
2023-05-19T00:29:31.999Z,54.60645
2023-05-19T00:30:02.098Z,54.52246
2023-05-19T00:30:32.207Z,55.0957
2023-05-19T00:31:02.095Z,54.81445
2023-05-19T00:31:32.044Z,54.75977
2023-05-19T00:32:02.059Z,55.02051
2023-05-19T00:32:32.027Z,54.83789
2023-05-19T00:33:02.110Z,54.66504
2023-05-19T00:33:32.014Z,54.85742
2023-05-19T00:34:02.066Z,55.27832
2023-05-19T00:34:32.004Z,55.6875
2023-05-19T00:35:02.027Z,55.46094
2023-05-19T00:35:32.000Z,54.80273
2023-05-19T00:36:02.162Z,55.12891
2023-05-19T00:36:32.006Z,54.80859
2023-05-19T00:37:02.025Z,55.05859
2023-05-19T00:37:32.003Z,55.08008
2023-05-19T00:38:02.086Z,54.85156
2023-05-19T00:38:32.006Z,55.09668
2023-05-19T00:39:02.054Z,55.17969
2023-05-19T00:39:32.004Z,55.49219
2023-05-19T00:40:02.124Z,55.32715
2023-05-19T00:40:32.214Z,55.39063
2023-05-19T00:41:02.025Z,55.3584
2023-05-19T00:41:32.006Z,55.19727
2023-05-19T00:42:02.043Z,55.20996
2023-05-19T00:42:32.017Z,54.97266
2023-05-19T00:43:02.066Z,54.99414
2023-05-19T00:43:32.004Z,55.04883
2023-05-19T00:44:02.028Z,55.09473
2023-05-19T00:44:32.007Z,55.12793
2023-05-19T00:45:02.022Z,55.44141
2023-05-19T00:45:32.006Z,55.32227
2023-05-19T00:46:02.020Z,55.88477
2023-05-19T00:46:32.069Z,55.48438
2023-05-19T00:47:02.257Z,55.42773
2023-05-19T00:47:32.094Z,55.61035
2023-05-19T00:48:02.131Z,55.4043
2023-05-19T00:48:32.013Z,55.45605
2023-05-19T00:49:02.018Z,55.68164
2023-05-19T00:49:32.022Z,56.125
2023-05-19T00:50:02.009Z,56.33105
2023-05-19T00:50:32.210Z,55.65234
2023-05-19T00:51:02.076Z,55.93555
2023-05-19T00:51:32.008Z,56.07715
2023-05-19T00:52:02.007Z,55.75488
2023-05-19T00:52:32.008Z,55.35742
2023-05-19T00:53:02.015Z,55.35938
2023-05-19T00:53:32.007Z,55.96484
2023-05-19T00:54:02.004Z,55.41504
2023-05-19T00:54:32.008Z,55.83691
2023-05-19T00:55:02.002Z,55.52344
2023-05-19T00:55:32.011Z,55.48926
2023-05-19T00:56:02.087Z,55.2959
2023-05-19T00:56:32.009Z,55.90234
2023-05-19T00:57:02.004Z,55.59961
2023-05-19T00:57:32.006Z,55.52441
2023-05-19T00:58:02.015Z,55.35156
2023-05-19T00:58:32.012Z,55.57715
2023-05-19T00:59:02.008Z,56.23633
2023-05-19T00:59:32.014Z,56.02051
2023-05-19T01:00:02.027Z,55.86914
2023-05-19T01:00:32.264Z,56.02246
2023-05-19T01:01:02.093Z,55.60352
2023-05-19T01:01:32.107Z,55.51855
2023-05-19T01:02:02.014Z,55.17383
2023-05-19T01:02:32.052Z,55.04395
2023-05-19T01:03:02.114Z,55.60742
2023-05-19T01:03:32.176Z,55.27148
2023-05-19T01:04:02.038Z,55.32617
2023-05-19T01:04:32.015Z,55.33594
2023-05-19T01:05:02.017Z,55.20508
2023-05-19T01:05:32.009Z,55.40918
2023-05-19T01:06:02.012Z,55.44043
2023-05-19T01:06:32.010Z,55.56641
2023-05-19T01:07:02.020Z,55.62988
2023-05-19T01:07:32.016Z,55.47949
2023-05-19T01:08:02.030Z,55.50488
2023-05-19T01:08:32.008Z,55.12988
2023-05-19T01:09:02.013Z,54.89551
2023-05-19T01:09:32.017Z,55.36426
2023-05-19T01:10:02.031Z,54.9668
2023-05-19T01:10:32.289Z,54.81738
2023-05-19T01:11:02.022Z,54.88184
2023-05-19T01:11:32.022Z,55.08789
2023-05-19T01:12:02.016Z,54.74316
2023-05-19T01:12:32.011Z,54.76172
2023-05-19T01:13:02.011Z,54.87891
2023-05-19T01:13:32.018Z,54.79102
2023-05-19T01:14:02.014Z,54.74707
2023-05-19T01:14:32.010Z,54.24805
2023-05-19T01:15:02.015Z,54.49707
2023-05-19T01:15:32.016Z,54.82129
2023-05-19T01:16:02.040Z,54.50781
2023-05-19T01:16:32.126Z,54.72656
2023-05-19T01:17:02.025Z,54.24316
2023-05-19T01:17:32.041Z,54.16016
2023-05-19T01:18:02.084Z,54.02246
2023-05-19T01:18:32.016Z,54.30762
2023-05-19T01:19:02.163Z,54.19336
2023-05-19T01:19:32.019Z,54.05566
2023-05-19T01:20:02.041Z,54.35938
2023-05-19T01:20:32.140Z,54.3252
2023-05-19T01:21:02.025Z,54.02344
2023-05-19T01:21:32.070Z,54.19727
2023-05-19T01:22:02.024Z,53.90527
2023-05-19T01:22:32.022Z,54.67383
2023-05-19T01:23:02.017Z,53.85352
2023-05-19T01:23:32.025Z,54.32129
2023-05-19T01:24:02.018Z,54.36816
2023-05-19T01:24:32.012Z,53.95703
2023-05-19T01:25:02.024Z,53.87305
2023-05-19T01:25:32.013Z,54.1123
2023-05-19T01:26:02.019Z,53.91699
2023-05-19T01:26:32.013Z,54.11133
2023-05-19T01:27:02.015Z,53.94629
2023-05-19T01:27:32.018Z,54.05469
2023-05-19T01:28:02.015Z,53.55664
2023-05-19T01:28:32.015Z,54.25
2023-05-19T01:29:02.021Z,53.63477
2023-05-19T01:29:32.016Z,53.8418
2023-05-19T01:30:02.026Z,53.73633
2023-05-19T01:30:32.225Z,53.59668
2023-05-19T01:31:02.033Z,53.61816
2023-05-19T01:31:32.045Z,53.57422
2023-05-19T01:32:02.054Z,54.0293
2023-05-19T01:32:32.081Z,53.83301
2023-05-19T01:33:02.115Z,53.87695
2023-05-19T01:33:32.042Z,54.11621
2023-05-19T01:34:02.023Z,52.67871
2023-05-19T01:34:32.027Z,53.87305
2023-05-19T01:35:02.025Z,54.27637
2023-05-19T01:35:32.031Z,54.04102
2023-05-19T01:36:02.030Z,53.79395
2023-05-19T01:36:32.018Z,53.66504
2023-05-19T01:37:02.027Z,53.40625
2023-05-19T01:37:32.027Z,53.0918
2023-05-19T01:38:02.049Z,53.27539
2023-05-19T01:38:32.032Z,53.26465
2023-05-19T01:39:02.026Z,53.31836
2023-05-19T01:39:32.021Z,52.99414
2023-05-19T01:40:02.055Z,52.74902
2023-05-19T01:40:32.223Z,53.31543
2023-05-19T01:41:02.021Z,52.72266
2023-05-19T01:41:32.023Z,52.7373
2023-05-19T01:42:02.059Z,52.6543
2023-05-19T01:42:32.020Z,53.29199
2023-05-19T01:43:02.089Z,53.03223
2023-05-19T01:43:32.039Z,53.16406
2023-05-19T01:44:02.041Z,53.00098
2023-05-19T01:44:32.029Z,53.33398
2023-05-19T01:45:02.023Z,53.32129
2023-05-19T01:45:32.055Z,53.75488
2023-05-19T01:46:02.074Z,53.04785
2023-05-19T01:46:32.171Z,53.52246
2023-05-19T01:47:02.025Z,53.06641
2023-05-19T01:47:32.057Z,53.30469
2023-05-19T01:48:02.085Z,53.09863
2023-05-19T01:48:32.026Z,52.86133
2023-05-19T01:49:02.026Z,53.20898
2023-05-19T01:49:32.024Z,53.22754
2023-05-19T01:50:02.023Z,52.95801
2023-05-19T01:50:32.269Z,53.20703
2023-05-19T01:51:02.041Z,53.0918
2023-05-19T01:51:32.034Z,53.11523
2023-05-19T01:52:02.024Z,52.69531
2023-05-19T01:52:32.032Z,53.15332
2023-05-19T01:53:02.029Z,52.48633
2023-05-19T01:53:32.030Z,52.19727
2023-05-19T01:54:02.049Z,52.20117
2023-05-19T01:54:32.034Z,52.21582
2023-05-19T01:55:02.033Z,52.34766
2023-05-19T01:55:32.045Z,52.55859
2023-05-19T01:56:02.040Z,52.05176
2023-05-19T01:56:32.028Z,51.99902
2023-05-19T01:57:02.041Z,52.2832
2023-05-19T01:57:32.026Z,51.54883
2023-05-19T01:58:02.059Z,52.14941
2023-05-19T01:58:32.024Z,51.9541
2023-05-19T01:59:02.032Z,51.71582
2023-05-19T01:59:32.034Z,51.8584
2023-05-19T02:00:02.029Z,51.44824
2023-05-19T02:00:32.295Z,52.24219
2023-05-19T02:01:02.079Z,51.7998
2023-05-19T02:01:32.131Z,52.22363
2023-05-19T02:02:02.058Z,52.40234
2023-05-19T02:02:32.076Z,51.83203
2023-05-19T02:03:02.054Z,51.25098
2023-05-19T02:03:32.040Z,51.10449
2023-05-19T02:04:02.068Z,50.89648
2023-05-19T02:04:32.049Z,50.72363
2023-05-19T02:05:02.026Z,52.01758
2023-05-19T02:05:32.034Z,51.0498
2023-05-19T02:06:02.031Z,51.17383
2023-05-19T02:06:32.034Z,51.20898
2023-05-19T02:07:02.035Z,50.29883
2023-05-19T02:07:32.045Z,50.26367
2023-05-19T02:08:02.030Z,50.67871
2023-05-19T02:08:32.032Z,50.40918
2023-05-19T02:09:02.030Z,49.82324
2023-05-19T02:09:32.029Z,50.31738
2023-05-19T02:10:02.029Z,50.33105
2023-05-19T02:10:32.224Z,51.05078
2023-05-19T02:11:02.029Z,50.91797
2023-05-19T02:11:32.030Z,50.40723
2023-05-19T02:12:02.032Z,50.39648
2023-05-19T02:12:32.031Z,50.53516
2023-05-19T02:13:02.042Z,50.45313
2023-05-19T02:13:32.034Z,50.4375
2023-05-19T02:14:02.042Z,49.70898
2023-05-19T02:14:32.041Z,49.08984
2023-05-19T02:15:02.032Z,49.29883
2023-05-19T02:15:32.058Z,48.83398
2023-05-19T02:16:02.060Z,48.61035
2023-05-19T02:16:32.033Z,48.87109
2023-05-19T02:17:02.034Z,49.17871
2023-05-19T02:17:32.123Z,49.02832
2023-05-19T02:18:02.042Z,49.71875
2023-05-19T02:18:32.033Z,49.53906
2023-05-19T02:19:02.061Z,48.83496
2023-05-19T02:19:32.029Z,48.91309
2023-05-19T02:20:02.031Z,48.44922
2023-05-19T02:20:32.237Z,48.42969
2023-05-19T02:21:02.035Z,48.41797
2023-05-19T02:21:32.031Z,49.82129
2023-05-19T02:22:02.076Z,48.77637
2023-05-19T02:22:32.036Z,47.72461
2023-05-19T02:23:02.032Z,47.72656
2023-05-19T02:23:32.030Z,47.79297
2023-05-19T02:24:02.034Z,47.78613
2023-05-19T02:24:32.048Z,48.18848
2023-05-19T02:25:02.029Z,48.89355
2023-05-19T02:25:32.029Z,48.32813
2023-05-19T02:26:02.029Z,47.92383
2023-05-19T02:26:32.043Z,48.57227
2023-05-19T02:27:02.049Z,49.11523
2023-05-19T02:27:32.030Z,47.37598
2023-05-19T02:28:02.052Z,48.11621
2023-05-19T02:28:32.031Z,48.50586
2023-05-19T02:29:02.057Z,49.30762
2023-05-19T02:29:32.028Z,49.72656
2023-05-19T02:30:02.052Z,48.81738
2023-05-19T02:30:32.530Z,48.66504
2023-05-19T02:31:02.055Z,48.4248
2023-05-19T02:31:32.058Z,48.5791
2023-05-19T02:32:02.122Z,48.5459
2023-05-19T02:32:32.073Z,48.5791
2023-05-19T02:33:02.059Z,48.34375
2023-05-19T02:33:32.031Z,47.9043
2023-05-19T02:34:02.035Z,48.24902
2023-05-19T02:34:32.031Z,48.85449
2023-05-19T02:35:02.058Z,49.5127
2023-05-19T02:35:32.029Z,47.95313
2023-05-19T02:36:02.031Z,48.48926
2023-05-19T02:36:32.030Z,48.06445
2023-05-19T02:37:02.039Z,47.14355
2023-05-19T02:37:32.038Z,47.10449
2023-05-19T02:38:02.037Z,47.21484
2023-05-19T02:38:32.030Z,47.4375
2023-05-19T02:39:02.036Z,46.53906
2023-05-19T02:39:32.038Z,46.44824
2023-05-19T02:40:02.032Z,46.44336
2023-05-19T02:40:32.199Z,46.63281
2023-05-19T02:41:02.052Z,47.76758
2023-05-19T02:41:32.037Z,46.70898
2023-05-19T02:42:02.031Z,46.49219
2023-05-19T02:42:32.037Z,46.77539
2023-05-19T02:43:02.030Z,46.56641
2023-05-19T02:43:32.038Z,46.83594
2023-05-19T02:44:02.045Z,46.38867
2023-05-19T02:44:32.036Z,46.33594
2023-05-19T02:45:02.055Z,46.63281
2023-05-19T02:45:32.035Z,46.39453
2023-05-19T02:46:02.048Z,47.08008
2023-05-19T02:46:32.136Z,47.43945
2023-05-19T02:47:02.047Z,46.88477
2023-05-19T02:47:32.836Z,47.15918
2023-05-19T02:48:02.070Z,46.32422
2023-05-19T02:48:32.033Z,45.74219
2023-05-19T02:49:02.034Z,45.75781
2023-05-19T02:49:32.045Z,46.52148
2023-05-19T02:50:02.080Z,47.19336
2023-05-19T02:50:32.240Z,47.08789
2023-05-19T02:51:02.036Z,46.28711
2023-05-19T02:51:32.042Z,46.8125
2023-05-19T02:52:02.035Z,46.91504
2023-05-19T02:52:32.041Z,46.50293
2023-05-19T02:53:02.038Z,46.67188
2023-05-19T02:53:32.038Z,47.80371
2023-05-19T02:54:02.044Z,47.83203
2023-05-19T02:54:32.042Z,46.14551
2023-05-19T02:55:02.037Z,45.99707
2023-05-19T02:55:32.051Z,46.06543
2023-05-19T02:56:02.038Z,44.82324
2023-05-19T02:56:32.038Z,45.46484
2023-05-19T02:57:02.036Z,45.78906
2023-05-19T02:57:32.038Z,46.29688
2023-05-19T02:58:02.041Z,46.3125
2023-05-19T02:58:32.046Z,46.57813
2023-05-19T02:59:02.044Z,45.88281
2023-05-19T02:59:32.037Z,46.04004
2023-05-19T03:00:02.046Z,45.44531
2023-05-19T03:00:32.271Z,45.20996
2023-05-19T03:01:02.036Z,44.86621
2023-05-19T03:01:32.062Z,45.47754
2023-05-19T03:02:02.163Z,46.10938
2023-05-19T03:02:32.164Z,45.76953
2023-05-19T03:03:02.096Z,45.4668
2023-05-19T03:03:32.139Z,44.83496
2023-05-19T03:04:02.398Z,44.92188
2023-05-19T03:04:32.045Z,45.23828
2023-05-19T03:05:02.039Z,45.07422
2023-05-19T03:05:32.041Z,44.70605
2023-05-19T03:06:02.040Z,45.25488
2023-05-19T03:06:32.044Z,44.8916
2023-05-19T03:07:02.042Z,44.78613
2023-05-19T03:07:32.042Z,44.97363
2023-05-19T03:08:02.044Z,44.0918
2023-05-19T03:08:32.055Z,44.27637
2023-05-19T03:09:02.039Z,44.42676
2023-05-19T03:09:32.047Z,44.77832
2023-05-19T03:10:02.046Z,44.41016
2023-05-19T03:10:32.163Z,44.25195
2023-05-19T03:11:02.042Z,44.81152
2023-05-19T03:11:32.044Z,43.78027
2023-05-19T03:12:02.047Z,43.56152
2023-05-19T03:12:32.042Z,44.02832
2023-05-19T03:13:02.046Z,44.36523
2023-05-19T03:13:32.039Z,44.62695
2023-05-19T03:14:02.044Z,44.88965
2023-05-19T03:14:32.045Z,44.93652
2023-05-19T03:15:02.057Z,44.50977
2023-05-19T03:15:32.039Z,44.5752
2023-05-19T03:16:02.129Z,44.5625
2023-05-19T03:16:32.121Z,43.80762
2023-05-19T03:17:02.098Z,43.79883
2023-05-19T03:17:32.126Z,44.10547
2023-05-19T03:18:02.084Z,43.92285
2023-05-19T03:18:32.042Z,43.5127
2023-05-19T03:19:02.107Z,43.98438
2023-05-19T03:19:32.061Z,44.25
2023-05-19T03:20:02.045Z,44.27637
2023-05-19T03:20:32.209Z,43.87305
2023-05-19T03:21:02.049Z,43.44922
2023-05-19T03:21:32.227Z,43.43457
2023-05-19T03:22:02.047Z,43.74707
2023-05-19T03:22:32.046Z,43.97363
2023-05-19T03:23:02.050Z,43.84277
2023-05-19T03:23:32.048Z,43.44922
2023-05-19T03:24:02.071Z,43.47266
2023-05-19T03:24:32.054Z,43.53906
2023-05-19T03:25:02.046Z,44.04102
2023-05-19T03:25:32.051Z,44.07617
2023-05-19T03:26:02.052Z,43.61816
2023-05-19T03:26:32.052Z,43.65332
2023-05-19T03:27:02.048Z,43.99512
2023-05-19T03:27:32.058Z,43.68066
2023-05-19T03:28:02.064Z,43.80664
2023-05-19T03:28:32.047Z,42.77051
2023-05-19T03:29:02.058Z,42.39453
2023-05-19T03:29:32.050Z,42.72559
2023-05-19T03:30:02.733Z,42.53613
2023-05-19T03:30:32.309Z,41.7041
2023-05-19T03:31:02.060Z,40.03223
2023-05-19T03:31:32.052Z,38.2998
2023-05-19T03:32:02.124Z,35.37598
2023-05-19T03:32:32.135Z,32.85547
2023-05-19T03:33:02.153Z,31.04102
2023-05-19T03:33:32.103Z,28.73828
2023-05-19T03:34:02.060Z,27.26758
2023-05-19T03:34:32.050Z,26.59277
2023-05-19T03:35:02.081Z,26.89844
2023-05-19T03:35:32.052Z,26.93066
2023-05-19T03:36:02.064Z,26.43848
2023-05-19T03:36:32.164Z,26.71875
2023-05-19T03:37:02.059Z,25.98828
2023-05-19T03:37:32.050Z,25.00391
2023-05-19T03:38:02.063Z,25.27441
2023-05-19T03:38:32.062Z,24.27539
2023-05-19T03:39:02.052Z,23.35352
2023-05-19T03:39:32.056Z,22.92383
2023-05-19T03:40:02.076Z,23.57227
2023-05-19T03:40:32.267Z,23.9082
2023-05-19T03:41:02.058Z,23.72754
2023-05-19T03:41:32.070Z,24.34082
2023-05-19T03:42:02.062Z,23.96484
2023-05-19T03:42:32.052Z,23.67969
2023-05-19T03:43:02.054Z,22.34668
2023-05-19T03:43:32.053Z,21.9082
2023-05-19T03:44:02.056Z,22.10938
2023-05-19T03:44:32.053Z,23.33203
2023-05-19T03:45:02.058Z,23.74609
2023-05-19T03:45:32.095Z,23.95996
2023-05-19T03:46:02.108Z,23.39551
2023-05-19T03:46:32.058Z,22.44727
2023-05-19T03:47:02.067Z,21.99316
2023-05-19T03:47:32.087Z,21.72363
2023-05-19T03:48:02.116Z,20.35742
2023-05-19T03:48:32.078Z,19.64258
2023-05-19T03:49:02.069Z,19.50684
2023-05-19T03:49:32.056Z,19.1709
2023-05-19T03:50:02.059Z,18.18359
2023-05-19T03:50:32.217Z,17.1875
2023-05-19T03:51:02.060Z,17.56348
2023-05-19T03:51:32.060Z,17.6748
2023-05-19T03:52:02.064Z,17.50098
2023-05-19T03:52:32.059Z,17.73145
2023-05-19T03:53:02.066Z,17.34961
2023-05-19T03:53:32.063Z,17.26465
2023-05-19T03:54:02.066Z,18.10156
2023-05-19T03:54:32.075Z,18.53711
2023-05-19T03:55:02.066Z,19.01367
2023-05-19T03:55:32.068Z,19.11621
2023-05-19T03:56:02.063Z,18.83789
2023-05-19T03:56:32.066Z,18.15137
2023-05-19T03:57:02.083Z,17.00684
2023-05-19T03:57:32.070Z,15.87598
2023-05-19T03:58:02.059Z,16.07324
2023-05-19T03:58:32.056Z,16.35938
2023-05-19T03:59:02.062Z,15.55078
2023-05-19T03:59:32.075Z,14.69629
2023-05-19T04:00:02.071Z,14.85352
2023-05-19T04:00:32.293Z,15.56836
2023-05-19T04:01:02.060Z,15.77344
2023-05-19T04:01:32.068Z,15.18164
2023-05-19T04:02:02.089Z,15.21875
2023-05-19T04:02:32.182Z,15.60547
2023-05-19T04:03:02.170Z,15.8418
2023-05-19T04:03:32.188Z,15.46484
2023-05-19T04:04:02.125Z,16.10938
2023-05-19T04:04:32.102Z,15.57031
2023-05-19T04:05:02.058Z,15.05957
2023-05-19T04:05:32.058Z,14.78027
2023-05-19T04:06:02.074Z,15.43262
2023-05-19T04:06:32.063Z,15.12402
2023-05-19T04:07:02.059Z,14.19434
2023-05-19T04:07:32.076Z,13.51953
2023-05-19T04:08:02.097Z,14.86914
2023-05-19T04:08:32.079Z,14.61035
2023-05-19T04:09:02.067Z,14.53906
2023-05-19T04:09:32.087Z,14.26563
2023-05-19T04:10:02.075Z,14.41211
2023-05-19T04:10:32.339Z,14.44238
2023-05-19T04:11:02.095Z,15.09082
2023-05-19T04:11:32.063Z,15.25391
2023-05-19T04:12:02.076Z,15.19824
2023-05-19T04:12:32.071Z,15.27344
2023-05-19T04:13:02.125Z,15.35742
2023-05-19T04:13:32.060Z,15.0791
2023-05-19T04:14:02.074Z,14.69141
2023-05-19T04:14:32.091Z,14.68555
2023-05-19T04:15:02.075Z,14.36719
2023-05-19T04:15:32.096Z,14.08594
2023-05-19T04:16:02.120Z,15.0791
2023-05-19T04:16:32.104Z,15.99414
2023-05-19T04:17:02.069Z,15.73633
2023-05-19T04:17:32.122Z,15.75293
2023-05-19T04:18:02.140Z,16.375
2023-05-19T04:18:32.065Z,15.88086
2023-05-19T04:19:02.095Z,15.46973
2023-05-19T04:19:32.130Z,16.04297
2023-05-19T04:20:02.088Z,14.97363
2023-05-19T04:20:32.186Z,14.87695
2023-05-19T04:21:02.064Z,16.43555
2023-05-19T04:21:32.067Z,16.5166
2023-05-19T04:22:02.067Z,17.05566
2023-05-19T04:22:32.066Z,16.1416
2023-05-19T04:23:02.066Z,16.00977
2023-05-19T04:23:32.065Z,16.62891
2023-05-19T04:24:02.069Z,15.48926
2023-05-19T04:24:32.062Z,15.36914
2023-05-19T04:25:02.072Z,15.40723
2023-05-19T04:25:32.068Z,15.60156
2023-05-19T04:26:02.082Z,15.14746
2023-05-19T04:26:32.072Z,15.00488
2023-05-19T04:27:02.071Z,15.07715
2023-05-19T04:27:32.135Z,15.12598
2023-05-19T04:28:02.081Z,14.60547
2023-05-19T04:28:32.083Z,15.23242
2023-05-19T04:29:02.073Z,14.91992
2023-05-19T04:29:32.066Z,14.69434
2023-05-19T04:30:02.066Z,14.19727
2023-05-19T04:30:32.394Z,14.18262
2023-05-19T04:31:02.129Z,14.60254
2023-05-19T04:31:32.140Z,14.76074
2023-05-19T04:32:02.079Z,14.41797
2023-05-19T04:32:32.089Z,13.90918
2023-05-19T04:33:02.132Z,14.30469
2023-05-19T04:33:32.071Z,13.93359
2023-05-19T04:34:02.071Z,12.87598
2023-05-19T04:34:32.068Z,13.59668
2023-05-19T04:35:02.073Z,13.68262
2023-05-19T04:35:32.069Z,13.29492
2023-05-19T04:36:02.075Z,13.90039
2023-05-19T04:36:32.077Z,14.62695
2023-05-19T04:37:02.085Z,15.13184
2023-05-19T04:37:32.071Z,15.40527
2023-05-19T04:38:02.079Z,15.36328
2023-05-19T04:38:32.075Z,14.91406
2023-05-19T04:39:02.077Z,15.1543
2023-05-19T04:39:32.090Z,14.44531
2023-05-19T04:40:02.075Z,14.13086
2023-05-19T04:40:32.388Z,14.45801
2023-05-19T04:41:02.098Z,13.67188
2023-05-19T04:41:32.085Z,13.85156
2023-05-19T04:42:02.088Z,13.95703
2023-05-19T04:42:32.080Z,13.56836
2023-05-19T04:43:02.235Z,13.5459
2023-05-19T04:43:32.081Z,14.2793
2023-05-19T04:44:02.075Z,14.18652
2023-05-19T04:44:32.077Z,13.88965
2023-05-19T04:45:02.078Z,13.52539
2023-05-19T04:45:32.088Z,14.2334
2023-05-19T04:46:02.111Z,13.69336
2023-05-19T04:46:32.108Z,13.68262
2023-05-19T04:47:02.140Z,14.5791
2023-05-19T04:47:32.109Z,14.13086
2023-05-19T04:48:02.194Z,13.8291
2023-05-19T04:48:32.077Z,14.14941
2023-05-19T04:49:02.082Z,14.04199
2023-05-19T04:49:32.075Z,16.08496
2023-05-19T04:50:02.084Z,15.30469
2023-05-19T04:50:32.211Z,15.99414
2023-05-19T04:51:02.085Z,15.97363
2023-05-19T04:51:32.088Z,16.08984
2023-05-19T04:52:02.088Z,17.11914
2023-05-19T04:52:32.086Z,16.42676
2023-05-19T04:53:02.084Z,15.81543
2023-05-19T04:53:32.162Z,15.38086
2023-05-19T04:54:02.082Z,14.65918
2023-05-19T04:54:32.080Z,15.13867
2023-05-19T04:55:02.077Z,14.03223
2023-05-19T04:55:32.082Z,14.6416
2023-05-19T04:56:02.084Z,14.56055
2023-05-19T04:56:32.084Z,16.26465
2023-05-19T04:57:02.082Z,16.38965
2023-05-19T04:57:32.088Z,15.5293
2023-05-19T04:58:02.091Z,15.8291
2023-05-19T04:58:32.085Z,15.86816
2023-05-19T04:59:02.087Z,16.19336
2023-05-19T04:59:32.088Z,15.82617
2023-05-19T05:00:02.098Z,15.83789
2023-05-19T05:00:32.227Z,15.39746
2023-05-19T05:01:02.091Z,15.42578
2023-05-19T05:01:32.088Z,15.03516
2023-05-19T05:02:02.160Z,15.17871
2023-05-19T05:02:32.175Z,14.84277
2023-05-19T05:03:02.142Z,14.6875
2023-05-19T05:03:32.211Z,14.09473
2023-05-19T05:04:02.248Z,13.89453
2023-05-19T05:04:32.085Z,14.82324
2023-05-19T05:05:02.080Z,14.57031
2023-05-19T05:05:32.078Z,14.51563
2023-05-19T05:06:02.079Z,14.4668
2023-05-19T05:06:32.084Z,14.02441
2023-05-19T05:07:02.080Z,16.19922
2023-05-19T05:07:32.671Z,16.35352
2023-05-19T05:08:02.083Z,16.46777
2023-05-19T05:08:32.079Z,16.48145
2023-05-19T05:09:02.081Z,16.63086
2023-05-19T05:09:32.086Z,16.48438
2023-05-19T05:10:02.087Z,15.45117
2023-05-19T05:10:32.290Z,14.98145
2023-05-19T05:11:02.080Z,14.66992
2023-05-19T05:11:32.083Z,13.98047
2023-05-19T05:12:02.091Z,13.48535
2023-05-19T05:12:32.096Z,14.98242
2023-05-19T05:13:02.080Z,13.66309
2023-05-19T05:13:32.087Z,14.31738
2023-05-19T05:14:02.092Z,14.4502
2023-05-19T05:14:32.083Z,12.88184
2023-05-19T05:15:02.143Z,13.10645
2023-05-19T05:15:32.084Z,13.34375
2023-05-19T05:16:02.146Z,13.26758
2023-05-19T05:16:32.180Z,13.58496
2023-05-19T05:17:02.088Z,14.45313
2023-05-19T05:17:32.148Z,14.04395
2023-05-19T05:18:02.151Z,14.37402
2023-05-19T05:18:32.093Z,14.43945
2023-05-19T05:19:02.108Z,14.58496
2023-05-19T05:19:32.151Z,14.33887
2023-05-19T05:20:02.094Z,15.06152
2023-05-19T05:20:32.297Z,14.08105
2023-05-19T05:21:02.085Z,13.21191
2023-05-19T05:21:32.088Z,13.56934
2023-05-19T05:22:02.094Z,14.4248
2023-05-19T05:22:32.087Z,14.625
2023-05-19T05:23:02.097Z,14.45898
2023-05-19T05:23:32.084Z,13.50977
2023-05-19T05:24:02.091Z,14.35156
2023-05-19T05:24:32.091Z,13.43164
2023-05-19T05:25:02.086Z,13.81445
2023-05-19T05:25:32.370Z,12.98926
2023-05-19T05:26:02.086Z,13.53027
2023-05-19T05:26:32.088Z,14.76855
2023-05-19T05:27:02.094Z,13.93164
2023-05-19T05:27:32.088Z,13.86426
2023-05-19T05:28:02.103Z,13.03516
2023-05-19T05:28:32.089Z,14.01074
2023-05-19T05:29:02.082Z,14.65039
2023-05-19T05:29:32.089Z,14.45996
2023-05-19T05:30:02.087Z,13.50391
2023-05-19T05:30:32.093Z,13.69629
2023-05-19T05:31:02.093Z,14.04688
2023-05-19T05:31:32.090Z,13.28418
2023-05-19T05:32:02.124Z,13.09375
2023-05-19T05:32:32.180Z,12.62891
2023-05-19T05:33:02.207Z,14.20215
2023-05-19T05:33:32.157Z,13.52344
2023-05-19T05:34:02.104Z,13.99414
2023-05-19T05:34:32.088Z,14.91895
2023-05-19T05:35:02.099Z,14.82227
2023-05-19T05:35:32.259Z,14.51465
2023-05-19T05:36:02.093Z,14.35254
2023-05-19T05:36:32.089Z,15.0625
2023-05-19T05:37:02.106Z,15.19629
2023-05-19T05:37:32.090Z,14.46191
2023-05-19T05:38:02.091Z,14.42676
2023-05-19T05:38:32.096Z,14.37012
2023-05-19T05:39:02.091Z,14.26855
2023-05-19T05:39:32.102Z,14.16895
2023-05-19T05:40:02.115Z,14.40332
2023-05-19T05:40:32.097Z,13.74316
2023-05-19T05:41:02.103Z,13.51074
2023-05-19T05:41:32.092Z,13.02637
2023-05-19T05:42:02.092Z,12.90625
2023-05-19T05:42:32.096Z,12.79492
2023-05-19T05:43:02.097Z,12.71191
2023-05-19T05:43:32.092Z,12.65527
2023-05-19T05:44:02.101Z,12.61328
2023-05-19T05:44:32.106Z,12.62012
2023-05-19T05:45:02.091Z,12.99512
2023-05-19T05:45:32.269Z,13.38867
2023-05-19T05:46:02.117Z,13.35938
2023-05-19T05:46:32.172Z,13.24023
2023-05-19T05:47:02.101Z,12.7998
2023-05-19T05:47:32.152Z,12.87793
2023-05-19T05:48:02.217Z,13.27832
2023-05-19T05:48:32.111Z,12.95605
2023-05-19T05:49:02.106Z,13.00098
2023-05-19T05:49:32.094Z,13.16504
2023-05-19T05:50:02.093Z,12.73145
2023-05-19T05:50:32.105Z,12.03613
2023-05-19T05:51:02.113Z,12.58008
2023-05-19T05:51:32.098Z,12.83008
2023-05-19T05:52:06.260Z,13.00977
2023-05-19T05:52:33.274Z,12.89453
2023-05-19T05:53:02.094Z,12.8125